createdAt,value
2022-12-09T00:00:22.665Z,-0.80
2022-12-09T00:05:44.403Z,-0.80
2022-12-09T00:10:46.532Z,-0.80
2022-12-09T00:15:48.750Z,-0.88
2022-12-09T00:20:48.002Z,-0.90
2022-12-09T00:25:47.442Z,-0.90
2022-12-09T00:30:47.171Z,-0.90
2022-12-09T00:35:47.394Z,-1.00
2022-12-09T00:40:46.937Z,-1.00
2022-12-09T00:45:46.399Z,-1.00
2022-12-09T00:50:48.383Z,-1.00
2022-12-09T00:55:48.428Z,-1.00
2022-12-09T01:00:47.433Z,-1.00
2022-12-09T01:05:47.051Z,-1.00
2022-12-09T01:10:48.141Z,-1.04
2022-12-09T01:15:47.509Z,-1.08
2022-12-09T01:20:47.493Z,-1.10
2022-12-09T01:25:46.460Z,-1.10
2022-12-09T01:30:45.487Z,-1.10
2022-12-09T01:35:46.779Z,-1.10
2022-12-09T01:40:51.419Z,-1.10
2022-12-09T01:45:51.315Z,-1.10
2022-12-09T01:50:56.992Z,-1.10
2022-12-09T01:55:58.860Z,-1.10
2022-12-09T02:00:59.363Z,-1.10
2022-12-09T02:05:59.413Z,-1.10
2022-12-09T02:11:14.234Z,-1.14
2022-12-09T02:16:22.792Z,-1.20
2022-12-09T02:21:32.456Z,-1.20
2022-12-09T02:26:43.936Z,-1.20
2022-12-09T02:32:06.785Z,-1.20
2022-12-09T02:37:18.311Z,-1.20
2022-12-09T02:42:26.099Z,-1.22
2022-12-09T02:47:31.464Z,-1.30
2022-12-09T02:52:35.633Z,-1.30
2022-12-09T02:57:39.642Z,-1.30
2022-12-09T03:02:45.411Z,-1.28
2022-12-09T03:07:57.528Z,-1.20
2022-12-09T03:13:06.385Z,-1.20
2022-12-09T03:18:11.381Z,-1.20
2022-12-09T03:23:13.250Z,-1.20
2022-12-09T03:28:20.250Z,-1.10
2022-12-09T03:33:23.557Z,-1.10
2022-12-09T03:38:28.811Z,-1.02
2022-12-09T03:43:31.903Z,-1.00
2022-12-09T03:48:32.461Z,-0.92
2022-12-09T03:53:40.856Z,-0.90
2022-12-09T03:58:44.552Z,-0.80
2022-12-09T04:03:49.629Z,-0.80
2022-12-09T04:08:49.449Z,-0.78
2022-12-09T04:13:48.877Z,-0.70
2022-12-09T04:18:47.697Z,-0.80
2022-12-09T04:23:48.660Z,-0.80
2022-12-09T04:28:49.448Z,-0.80
2022-12-09T04:33:50.138Z,-0.80
2022-12-09T04:38:49.982Z,-0.80
2022-12-09T04:43:50.386Z,-0.80
2022-12-09T04:48:49.551Z,-0.80
2022-12-09T04:53:50.041Z,-0.80
2022-12-09T04:58:50.843Z,-0.86
2022-12-09T05:03:54.898Z,-0.90
2022-12-09T05:08:58.037Z,-0.90
2022-12-09T05:13:58.018Z,-0.90
2022-12-09T05:18:57.969Z,-0.90
2022-12-09T05:23:59.075Z,-0.90
2022-12-09T05:28:58.485Z,-0.92
2022-12-09T05:33:57.833Z,-1.00
2022-12-09T05:38:57.938Z,-1.00
2022-12-09T05:43:57.337Z,-1.04
2022-12-09T05:48:57.239Z,-1.04
2022-12-09T05:53:58.415Z,-1.00
2022-12-09T05:58:59.470Z,-1.04
2022-12-09T06:03:59.532Z,-1.00
2022-12-09T06:09:03.700Z,-1.00
2022-12-09T06:14:03.017Z,-1.00
2022-12-09T06:19:04.332Z,-1.00
2022-12-09T06:24:04.904Z,-0.96
2022-12-09T06:29:04.291Z,-0.90
2022-12-09T06:34:03.135Z,-0.90
2022-12-09T06:39:10.417Z,-0.90
2022-12-09T06:44:12.813Z,-0.90
2022-12-09T06:49:15.765Z,-0.90
2022-12-09T06:54:15.350Z,-0.90
2022-12-09T06:59:15.013Z,-0.90
2022-12-09T07:04:16.908Z,-0.90
2022-12-09T07:09:20.364Z,-0.84
2022-12-09T07:14:21.572Z,-0.80
2022-12-09T07:19:24.747Z,-0.76
2022-12-09T07:24:24.807Z,-0.70
2022-12-09T07:29:24.209Z,-0.62
2022-12-09T07:34:25.117Z,-0.60
2022-12-09T07:39:25.269Z,-0.60
2022-12-09T07:44:25.867Z,-0.50
2022-12-09T07:49:26.503Z,-0.40
2022-12-09T07:54:25.998Z,-0.40
2022-12-09T07:59:25.488Z,-0.30
2022-12-09T08:04:24.543Z,-0.16
2022-12-09T08:09:24.613Z,0.00
2022-12-09T08:14:24.631Z,0.20
2022-12-09T08:19:25.441Z,0.32
2022-12-09T08:24:27.605Z,0.60
2022-12-09T08:29:28.009Z,0.70
2022-12-09T08:34:28.531Z,0.80
2022-12-09T08:39:28.386Z,0.90
2022-12-09T08:44:27.372Z,0.98
2022-12-09T08:49:28.268Z,1.00
2022-12-09T08:54:28.135Z,1.10
2022-12-09T08:59:28.369Z,1.20
2022-12-09T09:04:28.282Z,1.30
2022-12-09T09:09:27.624Z,1.40
2022-12-09T09:14:27.137Z,1.42
2022-12-09T09:19:28.766Z,1.52
2022-12-09T09:24:29.536Z,1.60
2022-12-09T09:29:29.513Z,1.70
2022-12-09T09:34:30.784Z,1.80
2022-12-09T09:39:30.840Z,1.90
2022-12-09T09:44:38.748Z,2.00
2022-12-09T09:49:50.170Z,2.02
2022-12-09T09:54:50.154Z,2.10
2022-12-09T10:00:09.874Z,2.20
2022-12-09T10:05:26.235Z,2.30
2022-12-09T10:10:43.812Z,2.40
2022-12-09T10:15:55.992Z,2.40
2022-12-09T10:20:55.596Z,2.50
2022-12-09T10:25:59.652Z,2.56
2022-12-09T10:31:00.112Z,2.60
2022-12-09T10:36:00.259Z,2.70
2022-12-09T10:41:11.812Z,2.74
2022-12-09T10:46:23.427Z,2.78
2022-12-09T10:51:31.184Z,2.90
2022-12-09T10:56:34.356Z,3.06
2022-12-09T11:01:48.897Z,3.20
2022-12-09T11:06:55.512Z,3.26
2022-12-09T11:11:59.258Z,3.38
2022-12-09T11:17:01.945Z,3.50
2022-12-09T11:22:26.652Z,3.60
2022-12-09T11:27:35.480Z,3.70
2022-12-09T11:32:37.404Z,3.80
2022-12-09T11:37:40.144Z,3.84
2022-12-09T11:42:39.990Z,3.94
2022-12-09T11:48:22.602Z,4.00
2022-12-09T11:53:26.961Z,4.18
2022-12-09T11:58:32.213Z,4.40
2022-12-09T12:03:42.660Z,4.58
2022-12-09T12:08:51.996Z,4.70
2022-12-09T12:13:55.661Z,4.80
2022-12-09T12:19:04.668Z,5.10
2022-12-09T12:24:57.562Z,5.32
2022-12-09T12:30:05.971Z,5.58
2022-12-09T12:35:38.923Z,5.50
2022-12-09T12:40:48.425Z,5.40
2022-12-09T12:46:16.311Z,5.46
2022-12-09T12:51:34.490Z,5.60
2022-12-09T12:56:46.915Z,5.70
2022-12-09T13:01:56.231Z,5.90
2022-12-09T13:07:07.454Z,6.00
2022-12-09T13:12:16.628Z,6.10
2022-12-09T13:17:18.567Z,6.20
2022-12-09T13:22:25.823Z,6.00
2022-12-09T13:27:37.306Z,5.80
2022-12-09T13:33:08.637Z,5.50
2022-12-09T13:38:28.352Z,5.10
2022-12-09T13:43:31.862Z,4.80
2022-12-09T13:48:47.921Z,4.50
2022-12-09T13:54:07.843Z,4.30
2022-12-09T13:59:41.913Z,4.08
2022-12-09T14:04:54.057Z,3.80
2022-12-09T14:09:57.670Z,3.50
2022-12-09T14:14:59.177Z,3.20
2022-12-09T14:20:22.425Z,2.92
2022-12-09T14:26:02.959Z,2.70
2022-12-09T14:31:08.372Z,2.54
2022-12-09T14:36:26.381Z,2.40
2022-12-09T14:41:31.552Z,2.30
2022-12-09T14:46:35.574Z,2.10
2022-12-09T14:51:41.533Z,1.90
2022-12-09T14:56:42.117Z,1.70
2022-12-09T15:02:22.811Z,1.58
2022-12-09T15:07:25.571Z,1.40
2022-12-09T15:12:32.259Z,1.20
2022-12-09T15:17:38.094Z,1.08
2022-12-09T15:22:37.960Z,0.90
2022-12-09T15:27:37.077Z,0.80
2022-12-09T15:32:40.039Z,0.70
2022-12-09T15:37:39.793Z,0.50
2022-12-09T15:42:44.221Z,0.40
2022-12-09T15:47:51.369Z,0.30
2022-12-09T15:52:55.914Z,0.20
2022-12-09T15:57:58.975Z,0.14
2022-12-09T16:02:59.686Z,0.10
2022-12-09T16:08:12.882Z,0.10
2022-12-09T16:13:16.151Z,0.10
2022-12-09T16:18:22.926Z,0.20
2022-12-09T16:23:27.329Z,0.20
2022-12-09T16:28:29.297Z,0.30
2022-12-09T16:33:30.858Z,0.30
2022-12-09T16:38:30.050Z,0.40
2022-12-09T16:43:30.753Z,0.44
2022-12-09T16:48:31.952Z,0.50
2022-12-09T16:53:35.555Z,0.50
2022-12-09T16:58:37.359Z,0.58
2022-12-09T17:03:45.745Z,0.60
2022-12-09T17:08:45.292Z,0.60
2022-12-09T17:13:44.997Z,0.70
2022-12-09T17:18:44.670Z,0.70
2022-12-09T17:23:44.728Z,0.70
2022-12-09T17:28:45.693Z,0.70
2022-12-09T17:33:45.705Z,0.70
2022-12-09T17:38:45.529Z,0.62
2022-12-09T17:43:45.283Z,0.60
2022-12-09T17:48:44.457Z,0.60
2022-12-09T17:53:44.834Z,0.50
2022-12-09T17:58:45.006Z,0.50
2022-12-09T18:03:56.157Z,0.46
2022-12-09T18:08:57.108Z,0.40
2022-12-09T18:13:56.742Z,0.40
2022-12-09T18:18:56.758Z,0.40
2022-12-09T18:23:56.339Z,0.40
2022-12-09T18:28:59.118Z,0.40
2022-12-09T18:33:58.304Z,0.50
2022-12-09T18:38:58.721Z,0.50
2022-12-09T18:44:00.801Z,0.50
2022-12-09T18:49:05.910Z,0.50
2022-12-09T18:54:06.673Z,0.60
2022-12-09T18:59:07.902Z,0.60
2022-12-09T19:04:12.895Z,0.68
2022-12-09T19:09:16.273Z,0.70
2022-12-09T19:14:16.226Z,0.70
2022-12-09T19:19:19.933Z,0.70
2022-12-09T19:24:22.697Z,0.70
2022-12-09T19:29:24.937Z,0.70
2022-12-09T19:34:26.641Z,0.70
2022-12-09T19:39:30.292Z,0.80
2022-12-09T19:45:00.996Z,0.80
2022-12-09T19:49:51.871Z,0.80
2022-12-09T19:54:50.676Z,0.80
2022-12-09T19:59:50.271Z,0.80
2022-12-09T20:04:50.849Z,0.80
2022-12-09T20:09:50.744Z,0.80
2022-12-09T20:14:50.070Z,0.80
2022-12-09T20:19:50.117Z,0.80
2022-12-09T20:24:50.573Z,0.80
2022-12-09T20:29:50.265Z,0.80
2022-12-09T20:34:51.461Z,0.80
2022-12-09T20:39:50.398Z,0.80
2022-12-09T20:44:50.216Z,0.80
2022-12-09T20:49:49.402Z,0.80
2022-12-09T20:54:48.865Z,0.80
2022-12-09T20:59:48.296Z,0.72
2022-12-09T21:04:47.404Z,0.70
2022-12-09T21:09:46.750Z,0.70
2022-12-09T21:14:45.989Z,0.70
2022-12-09T21:19:45.280Z,0.70
2022-12-09T21:24:44.156Z,0.70
2022-12-09T21:29:45.325Z,0.70
2022-12-09T21:34:44.462Z,0.70
2022-12-09T21:39:44.029Z,0.70
2022-12-09T21:44:43.616Z,0.70
2022-12-09T21:49:42.864Z,0.70
2022-12-09T21:54:42.170Z,0.70
2022-12-09T21:59:41.693Z,0.74
2022-12-09T22:04:41.150Z,0.80
2022-12-09T22:09:41.402Z,0.80
2022-12-09T22:14:41.029Z,0.80
2022-12-09T22:19:39.936Z,0.80
2022-12-09T22:24:38.752Z,0.80
2022-12-09T22:29:38.215Z,0.90
2022-12-09T22:34:37.629Z,0.90
2022-12-09T22:39:36.755Z,0.90
2022-12-09T22:44:36.554Z,1.00
2022-12-09T22:49:36.821Z,1.00
2022-12-09T22:54:36.308Z,1.00
2022-12-09T22:59:41.349Z,1.06
2022-12-09T23:04:42.144Z,1.10
2022-12-09T23:09:41.356Z,1.10
2022-12-09T23:14:41.018Z,1.10
2022-12-09T23:19:40.392Z,1.10
2022-12-09T23:24:39.549Z,1.08
2022-12-09T23:29:39.291Z,1.00
2022-12-09T23:34:40.208Z,1.00
2022-12-09T23:39:39.766Z,1.00
2022-12-09T23:44:40.949Z,1.04
2022-12-09T23:49:39.554Z,1.06
2022-12-09T23:54:39.463Z,1.04
2022-12-09T23:59:40.603Z,1.08
